Time;durP1;ratioP1;P1;durP2;ratioP2;P2;SDS_P1;SDS_P2;PMS_P1;PMS_P2;Temp;Humidity;BMP_temperature;BMP_pressure;BME280_temperature;BME280_humidity;BME280_pressure;Samples;Min_cycle;Max_cycle;Signal;HPM_P1;HPM_P2
2024/03/07 00:00:43;;;;;;;16.20;10.30;;;;;;;-9.00;92.50;140098.63;107105;1265;25428;-68
2024/03/07 00:03:29;;;;;;;20.40;10.30;;;;;;;-9.03;93.36;140091.47;106862;1272;25348;-69
2024/03/07 00:06:14;;;;;;;17.60;9.70;;;;;;;-9.04;93.53;140089.03;106999;1266;24103;-66
2024/03/07 00:09:00;;;;;;;18.20;10.30;;;;;;;-9.05;93.84;140087.03;106979;1273;25338;-69
2024/03/07 00:11:46;;;;;;;17.20;9.80;;;;;;;-9.00;94.40;140098.86;106828;1271;25367;-67
2024/03/07 00:14:31;;;;;;;15.30;8.60;;;;;;;-8.90;93.88;140121.78;106873;1268;24265;-69
2024/03/07 00:17:18;;;;;;;17.90;8.60;;;;;;;-8.83;93.47;140139.03;106928;1262;25425;-67
2024/03/07 00:20:08;;;;;;;15.80;9.50;;;;;;;-8.82;93.07;140142.25;107054;1264;25397;-66
2024/03/07 00:22:54;;;;;;;14.40;8.70;;;;;;;-8.80;92.32;140145.20;106915;1265;25306;-69
2024/03/07 00:25:39;;;;;;;18.40;9.10;;;;;;;-8.84;92.29;140136.33;106901;1271;25376;-69
2024/03/07 00:28:29;;;;;;;17.20;10.20;;;;;;;-8.86;92.15;140131.41;106890;1273;25567;-68
2024/03/07 00:31:14;;;;;;;15.80;9.90;;;;;;;-8.87;92.58;140129.19;106844;1269;25313;-69
2024/03/07 00:34:00;;;;;;;13.80;9.40;;;;;;;-8.85;92.40;140134.34;106742;1269;25362;-69
2024/03/07 00:36:59;;;;;;;18.10;10.40;;;;;;;-8.92;91.51;140115.63;106857;1272;22534;-65
2024/03/07 00:39:45;;;;;;;17.80;10.20;;;;;;;-9.07;92.11;140082.08;106868;1269;25498;-71
2024/03/07 00:42:31;;;;;;;15.70;9.60;;;;;;;-9.14;92.39;140065.09;106866;1272;25497;-66
2024/03/07 00:45:17;;;;;;;15.50;8.20;;;;;;;-9.24;92.66;140040.20;106811;1272;25334;-66
2024/03/07 00:48:03;;;;;;;14.70;9.30;;;;;;;-9.31;93.05;140023.70;106980;1273;25403;-72
2024/03/07 00:50:49;;;;;;;12.10;7.80;;;;;;;-9.34;93.80;140015.58;106908;1273;24219;-70
2024/03/07 00:53:36;;;;;;;12.80;8.20;;;;;;;-9.32;93.81;140020.25;106922;1271;25529;-67
2024/03/07 00:56:22;;;;;;;15.90;8.80;;;;;;;-9.36;93.79;140009.91;106898;1270;22542;-72
2024/03/07 00:59:08;;;;;;;16.60;9.20;;;;;;;-9.38;94.31;140006.22;106847;1279;25497;-68
2024/03/07 01:01:53;;;;;;;15.60;10.10;;;;;;;-9.31;94.49;140022.22;106748;1265;25357;-68
2024/03/07 01:04:39;;;;;;;17.40;8.90;;;;;;;-9.25;94.08;140036.77;106866;1265;23790;-68
2024/03/07 01:07:24;;;;;;;18.40;9.70;;;;;;;-9.19;93.97;140052.03;106930;1270;25338;-67
2024/03/07 01:10:11;;;;;;;14.20;9.30;;;;;;;-9.12;93.81;140069.05;106892;1276;25472;-70
2024/03/07 01:13:01;;;;;;;13.50;8.60;;;;;;;-9.06;93.36;140084.34;106936;1276;25535;-67
2024/03/07 01:15:46;;;;;;;15.50;10.20;;;;;;;-9.03;92.74;140092.70;106727;1277;25391;-67
2024/03/07 01:18:33;;;;;;;17.60;9.60;;;;;;;-8.99;92.75;140100.34;106919;1263;23765;-66
2024/03/07 01:21:19;;;;;;;14.60;8.90;;;;;;;-8.96;92.09;140109.45;106780;1269;25373;-67
2024/03/07 01:24:06;;;;;;;17.20;9.20;;;;;;;-8.93;91.56;140113.66;106804;1278;25519;-70
2024/03/07 01:26:51;;;;;;;14.30;8.30;;;;;;;-8.96;90.89;140108.97;106716;1272;25417;-69
2024/03/07 01:29:41;;;;;;;15.00;8.50;;;;;;;-8.98;90.59;140104.55;106797;1272;25426;-68
2024/03/07 01:32:28;;;;;;;14.30;8.20;;;;;;;-8.98;90.32;140103.55;106749;1273;25412;-68
2024/03/07 01:35:14;;;;;;;14.70;8.90;;;;;;;-8.99;90.03;140101.83;106779;1278;23419;-66
2024/03/07 01:37:59;;;;;;;16.00;9.00;;;;;;;-9.02;89.74;140094.66;106847;1272;25365;-64
2024/03/07 01:40:45;;;;;;;13.50;9.10;;;;;;;-9.03;89.83;140091.23;106711;1272;25496;-66
2024/03/07 01:43:31;;;;;;;14.90;9.50;;;;;;;-9.08;89.69;140079.88;106773;1280;25362;-67
2024/03/07 01:46:17;;;;;;;14.00;9.10;;;;;;;-9.18;90.31;140055.48;106652;1272;25334;-69
2024/03/07 01:49:03;;;;;;;14.50;9.00;;;;;;;-9.24;90.75;140039.72;106771;1277;25335;-67
2024/03/07 01:51:48;;;;;;;13.20;8.60;;;;;;;-9.30;90.79;140026.91;106709;1279;25568;-70
2024/03/07 01:54:35;;;;;;;13.50;8.80;;;;;;;-9.31;91.26;140022.70;106723;1275;25502;-68
2024/03/07 01:57:21;;;;;;;16.00;9.10;;;;;;;-9.32;91.42;140021.48;106801;1279;25402;-72
2024/03/07 02:00:09;;;;;;;15.30;9.70;;;;;;;-9.35;91.77;140013.59;106746;1279;25490;-68
2024/03/07 02:02:55;;;;;;;13.80;8.60;;;;;;;-9.31;92.07;140022.22;106726;1269;25487;-69
2024/03/07 02:05:41;;;;;;;13.80;8.90;;;;;;;-9.24;91.82;140040.45;106789;1277;25395;-68
2024/03/07 02:08:27;;;;;;;17.30;10.00;;;;;;;-9.26;91.49;140034.30;106726;1277;25465;-67
2024/03/07 02:11:13;;;;;;;14.80;9.30;;;;;;;-9.28;92.14;140031.34;106886;1265;25412;-66
2024/03/07 02:13:59;;;;;;;15.90;10.10;;;;;;;-9.26;92.01;140035.03;106791;1274;25352;-67
2024/03/07 02:16:44;;;;;;;18.40;9.90;;;;;;;-9.26;92.08;140036.50;106911;1275;25408;-68
2024/03/07 02:19:32;;;;;;;15.40;9.20;;;;;;;-9.24;92.29;140040.69;106757;1274;25331;-67
2024/03/07 02:22:19;;;;;;;21.60;10.90;;;;;;;-9.22;92.34;140045.38;106722;1277;25370;-69
2024/03/07 02:25:06;;;;;;;19.80;10.90;;;;;;;-9.20;92.08;140049.33;106822;1257;23298;-64
2024/03/07 02:27:51;;;;;;;18.20;10.00;;;;;;;-9.19;92.16;140053.75;106816;1277;25373;-67
2024/03/07 02:30:36;;;;;;;19.40;10.70;;;;;;;-9.15;91.99;140061.64;106829;1261;22540;-69
2024/03/07 02:33:23;;;;;;;14.90;9.70;;;;;;;-9.15;91.26;140061.88;106916;1273;25439;-63
2024/03/07 02:36:09;;;;;;;15.10;9.30;;;;;;;-9.18;91.09;140055.72;106981;1273;25455;-63
2024/03/07 02:38:54;;;;;;;12.80;8.10;;;;;;;-9.21;91.30;140048.34;106755;1270;25334;-69
2024/03/07 02:41:40;;;;;;;21.10;9.30;;;;;;;-9.28;91.04;140029.36;106839;1277;25458;-67
2024/03/07 02:44:25;;;;;;;14.10;8.50;;;;;;;-9.42;91.74;139996.84;106788;1268;22537;-69
2024/03/07 02:47:11;;;;;;;16.20;8.80;;;;;;;-9.43;92.43;139994.38;106775;1275;25463;-69
2024/03/07 02:49:57;;;;;;;13.20;8.60;;;;;;;-9.39;91.98;140005.22;106936;1273;25369;-69
2024/03/07 02:52:43;;;;;;;18.00;9.50;;;;;;;-9.35;91.93;140011.88;106967;1257;25374;-66
2024/03/07 02:55:28;;;;;;;13.50;8.00;;;;;;;-9.34;91.50;140016.58;106885;1266;22537;-68
2024/03/07 02:58:16;;;;;;;15.60;9.10;;;;;;;-9.29;91.24;140028.16;106908;1270;22656;-72
2024/03/07 03:01:05;;;;;;;15.20;8.70;;;;;;;-9.28;91.05;140030.59;106833;1276;25338;-70
2024/03/07 03:03:51;;;;;;;14.00;9.00;;;;;;;-9.26;91.24;140034.78;106973;1272;23376;-65
2024/03/07 03:06:36;;;;;;;15.60;9.00;;;;;;;-9.29;90.41;140029.09;106990;1270;25392;-69
2024/03/07 03:09:23;;;;;;;16.00;9.90;;;;;;;-9.40;90.33;140002.28;106952;1265;22619;-65
2024/03/07 03:12:10;;;;;;;14.30;8.50;;;;;;;-9.44;90.81;139992.16;106922;1258;22563;-65
2024/03/07 03:14:55;;;;;;;14.20;8.00;;;;;;;-9.51;90.81;139975.66;106913;1273;25358;-67
2024/03/07 03:17:42;;;;;;;13.50;8.50;;;;;;;-9.52;91.06;139971.95;106916;1264;24193;-69
2024/03/07 03:20:39;;;;;;;16.90;9.80;;;;;;;-9.48;91.23;139982.80;106864;1261;25366;-69
2024/03/07 03:23:25;;;;;;;14.70;8.40;;;;;;;-9.43;91.23;139994.86;106797;1257;25335;-68
2024/03/07 03:26:10;;;;;;;16.00;9.80;;;;;;;-9.50;91.89;139977.88;106787;1260;25385;-70
2024/03/07 03:28:56;;;;;;;15.80;9.80;;;;;;;-9.49;91.89;139981.80;106774;1267;25333;-68
2024/03/07 03:31:42;;;;;;;15.70;10.00;;;;;;;-9.40;92.14;140001.53;106760;1270;25361;-67
2024/03/07 03:34:27;;;;;;;24.00;10.60;;;;;;;-9.35;92.20;140014.34;106877;1270;25464;-69
2024/03/07 03:37:13;;;;;;;15.90;9.90;;;;;;;-9.29;91.52;140027.88;106817;1270;25494;-68
2024/03/07 03:39:59;;;;;;;18.40;9.80;;;;;;;-9.26;91.18;140034.53;106734;1276;25329;-65
2024/03/07 03:42:45;;;;;;;19.00;9.60;;;;;;;-9.22;91.01;140045.16;106731;1273;25513;-68
2024/03/07 03:45:33;;;;;;;17.90;9.80;;;;;;;-9.21;90.81;140046.84;106841;1269;25376;-68
2024/03/07 03:48:19;;;;;;;15.70;9.00;;;;;;;-9.19;90.47;140054.00;106794;1273;25345;-68
2024/03/07 03:51:08;;;;;;;21.00;11.30;;;;;;;-9.18;90.39;140055.25;106809;1257;25346;-68
2024/03/07 03:53:53;;;;;;;18.70;10.90;;;;;;;-9.18;90.13;140055.75;106794;1256;24211;-70
2024/03/07 03:56:39;;;;;;;16.90;9.30;;;;;;;-9.12;90.63;140069.28;106728;1273;25366;-69
2024/03/07 03:59:25;;;;;;;15.30;9.20;;;;;;;-9.05;90.14;140085.80;106820;1273;25355;-71
2024/03/07 04:02:11;;;;;;;15.40;9.00;;;;;;;-9.01;89.16;140096.14;106840;1273;25337;-67
2024/03/07 04:04:56;;;;;;;15.10;9.20;;;;;;;-9.00;88.71;140099.36;106865;1261;25337;-73
2024/03/07 04:07:42;;;;;;;17.00;9.70;;;;;;;-9.00;88.65;140098.63;106798;1260;25592;-70
2024/03/07 04:10:27;;;;;;;18.00;9.80;;;;;;;-9.00;88.55;140098.13;106737;1270;25434;-70
2024/03/07 04:13:13;;;;;;;15.50;9.30;;;;;;;-9.00;88.30;140097.88;106636;1260;25335;-70
2024/03/07 04:15:59;;;;;;;16.00;9.20;;;;;;;-9.01;88.53;140096.89;106979;1270;25337;-69
2024/03/07 04:18:44;;;;;;;15.10;9.80;;;;;;;-8.99;88.33;140101.56;106855;1273;25492;-67
2024/03/07 04:21:30;;;;;;;15.50;9.90;;;;;;;-9.01;88.07;140095.41;106985;1273;25341;-68
2024/03/07 04:24:15;;;;;;;17.10;10.10;;;;;;;-9.05;87.86;140086.53;106848;1279;25394;-67
2024/03/07 04:27:05;;;;;;;15.90;10.20;;;;;;;-9.07;87.95;140080.63;106920;1257;23685;-69
2024/03/07 04:29:50;;;;;;;19.10;9.40;;;;;;;-9.09;88.12;140076.67;106920;1263;23003;-69
2024/03/07 04:32:38;;;;;;;16.80;9.80;;;;;;;-9.07;88.42;140081.86;106796;1273;25337;-69
2024/03/07 04:35:24;;;;;;;20.80;9.80;;;;;;;-9.09;88.42;140076.92;106889;1257;22586;-70
2024/03/07 04:38:14;;;;;;;15.50;9.10;;;;;;;-9.17;88.24;140056.72;106834;1260;25374;-68
2024/03/07 04:41:00;;;;;;;19.80;10.50;;;;;;;-9.19;88.64;140053.77;106849;1270;25519;-71
2024/03/07 04:43:45;;;;;;;16.10;9.80;;;;;;;-9.16;88.90;140058.67;106815;1266;23103;-67
2024/03/07 04:46:32;;;;;;;18.10;10.90;;;;;;;-9.12;88.56;140068.30;106976;1276;25409;-72
2024/03/07 04:49:17;;;;;;;17.30;9.80;;;;;;;-9.05;88.69;140086.53;106816;1260;25487;-68
2024/03/07 04:52:04;;;;;;;14.20;9.50;;;;;;;-8.96;88.30;140108.47;106789;1270;23344;-67
2024/03/07 04:54:50;;;;;;;17.10;9.90;;;;;;;-8.90;87.47;140121.28;106595;1273;22527;-68
2024/03/07 04:57:41;;;;;;;16.80;10.40;;;;;;;-8.91;87.14;140119.06;106745;1270;23442;-67
2024/03/07 05:00:29;;;;;;;16.90;9.50;;;;;;;-8.92;87.07;140117.59;106757;1271;25373;-66
2024/03/07 05:03:15;;;;;;;15.00;9.40;;;;;;;-8.94;86.51;140111.42;106788;1273;25542;-67
2024/03/07 05:06:00;;;;;;;15.30;10.30;;;;;;;-8.96;86.66;140108.72;106831;1270;25353;-70
2024/03/07 05:08:46;;;;;;;16.90;9.50;;;;;;;-8.94;86.87;140112.91;106809;1269;22655;-69
2024/03/07 05:11:35;;;;;;;17.40;10.30;;;;;;;-8.92;87.15;140117.84;106840;1268;25327;-68
2024/03/07 05:14:21;;;;;;;16.80;9.50;;;;;;;-8.92;86.93;140116.59;106930;1270;25341;-65
2024/03/07 05:17:10;;;;;;;14.60;9.50;;;;;;;-8.90;86.57;140120.78;106966;1271;25341;-70
2024/03/07 05:19:56;;;;;;;16.50;9.90;;;;;;;-8.95;86.01;140110.67;106677;1277;25487;-67
2024/03/07 05:22:50;;;;;;;15.60;9.20;;;;;;;-8.96;85.95;140108.45;106785;1267;25454;-67
2024/03/07 05:25:36;;;;;;;16.80;9.10;;;;;;;-9.00;85.94;140098.38;106867;1265;23124;-64
2024/03/07 05:28:22;;;;;;;15.90;9.70;;;;;;;-9.04;85.56;140089.00;106717;1270;25335;-65
2024/03/07 05:31:12;;;;;;;17.90;9.50;;;;;;;-9.08;85.84;140079.66;106790;1270;25336;-66
2024/03/07 05:33:57;;;;;;;14.10;9.00;;;;;;;-9.10;85.41;140075.42;106800;1264;25352;-67
2024/03/07 05:36:46;;;;;;;20.90;10.00;;;;;;;-9.11;85.95;140070.50;106721;1279;22523;-71
2024/03/07 05:39:32;;;;;;;17.80;10.00;;;;;;;-9.13;86.22;140065.83;106643;1267;25486;-68
2024/03/07 05:42:18;;;;;;;22.20;10.20;;;;;;;-9.12;86.29;140070.50;106753;1270;25397;-67
2024/03/07 05:45:07;;;;;;;17.70;10.40;;;;;;;-9.09;86.67;140075.67;106726;1270;25357;-69
2024/03/07 05:47:53;;;;;;;20.20;10.60;;;;;;;-9.07;86.59;140082.11;106716;1270;25358;-67
2024/03/07 05:50:39;;;;;;;16.80;9.70;;;;;;;-9.01;86.09;140096.14;106713;1263;25400;-66
2024/03/07 05:53:25;;;;;;;16.80;9.70;;;;;;;-8.95;85.74;140111.17;106715;1268;25414;-65
2024/03/07 05:56:11;;;;;;;14.90;8.00;;;;;;;-8.86;84.97;140130.92;106768;1270;25395;-69
2024/03/07 05:58:57;;;;;;;13.70;8.60;;;;;;;-8.82;83.70;140141.27;106734;1270;25355;-68
2024/03/07 06:01:42;;;;;;;12.90;8.50;;;;;;;-8.81;82.89;140144.95;106725;1269;25338;-68
2024/03/07 06:04:29;;;;;;;16.70;9.20;;;;;;;-8.77;82.24;140154.08;106736;1272;25554;-67
2024/03/07 06:07:15;;;;;;;16.90;9.20;;;;;;;-8.71;81.88;140166.66;106827;1272;25487;-71
2024/03/07 06:10:01;;;;;;;16.80;9.50;;;;;;;-8.72;81.10;140164.19;106928;1269;25348;-69
2024/03/07 06:12:47;;;;;;;16.70;10.10;;;;;;;-8.72;81.64;140164.20;106950;1270;25348;-68
2024/03/07 06:15:50;;;;;;;15.70;9.50;;;;;;;-8.69;82.06;140171.84;107060;1258;23259;-68
2024/03/07 06:18:36;;;;;;;15.70;9.90;;;;;;;-8.70;81.39;140171.34;107004;1264;22540;-67
2024/03/07 06:21:21;;;;;;;14.40;8.80;;;;;;;-8.71;81.62;140166.66;106869;1262;25419;-70
2024/03/07 06:24:10;;;;;;;15.90;10.20;;;;;;;-8.72;81.32;140164.44;106795;1270;25404;-65
2024/03/07 06:27:03;;;;;;;17.20;9.90;;;;;;;-8.77;82.35;140153.83;106973;1268;23204;-68
2024/03/07 06:29:50;;;;;;;16.80;10.60;;;;;;;-8.78;82.97;140152.11;106868;1272;25419;-69
2024/03/07 06:32:37;;;;;;;17.20;11.50;;;;;;;-8.78;83.32;140151.63;106788;1271;25348;-67
2024/03/07 06:35:22;;;;;;;21.30;11.00;;;;;;;-8.76;83.89;140156.05;106791;1266;25351;-68
2024/03/07 06:38:10;;;;;;;18.30;11.40;;;;;;;-8.78;84.10;140151.36;106841;1276;25325;-69
2024/03/07 06:40:55;;;;;;;18.80;10.80;;;;;;;-8.77;84.22;140154.34;106825;1271;25356;-68
2024/03/07 06:43:44;;;;;;;15.80;9.60;;;;;;;-8.79;83.73;140149.39;106819;1266;25358;-67
2024/03/07 06:46:31;;;;;;;18.90;10.80;;;;;;;-8.81;83.65;140143.47;106875;1268;25526;-68
2024/03/07 06:49:18;;;;;;;16.90;10.30;;;;;;;-8.81;83.46;140145.20;106877;1270;25404;-69
2024/03/07 06:52:04;;;;;;;18.40;10.90;;;;;;;-8.77;83.49;140154.33;106870;1269;25525;-68
2024/03/07 06:54:50;;;;;;;17.90;10.70;;;;;;;-8.71;83.58;140167.64;106981;1257;25425;-66
2024/03/07 06:57:35;;;;;;;19.20;11.00;;;;;;;-8.66;83.46;140179.47;106873;1268;25456;-69
2024/03/07 07:00:21;;;;;;;15.20;10.20;;;;;;;-8.64;83.30;140184.92;106913;1263;22665;-69
2024/03/07 07:03:07;;;;;;;17.00;10.20;;;;;;;-8.59;82.93;140196.23;106880;1272;25409;-68
2024/03/07 07:05:57;;;;;;;15.40;10.00;;;;;;;-8.58;82.21;140198.47;106797;1273;22653;-68
2024/03/07 07:08:44;;;;;;;15.90;10.00;;;;;;;-8.61;81.95;140191.30;106762;1277;25526;-68
2024/03/07 07:11:30;;;;;;;16.60;9.10;;;;;;;-8.54;81.21;140210.31;106881;1270;25418;-65
2024/03/07 07:14:20;;;;;;;16.60;9.80;;;;;;;-8.46;80.14;140226.81;106812;1262;22542;-67
2024/03/07 07:17:06;;;;;;;15.30;8.90;;;;;;;-8.41;79.60;140241.11;107062;1270;22661;-71
2024/03/07 07:19:57;;;;;;;13.30;8.60;;;;;;;-8.35;78.88;140255.13;106916;1258;22547;-72
2024/03/07 07:22:47;;;;;;;13.70;9.10;;;;;;;-8.32;78.21;140262.53;106840;1257;25358;-67
2024/03/07 07:25:33;;;;;;;15.80;10.20;;;;;;;-8.33;78.81;140260.56;106995;1270;23369;-66
2024/03/07 07:28:19;;;;;;;19.10;9.40;;;;;;;-8.34;79.24;140257.86;106930;1276;25499;-68
2024/03/07 07:31:05;;;;;;;18.60;9.50;;;;;;;-8.26;79.59;140275.59;106895;1260;25353;-71
2024/03/07 07:33:51;;;;;;;15.70;9.90;;;;;;;-8.28;79.68;140271.67;106811;1278;25430;-67
2024/03/07 07:36:37;;;;;;;19.60;10.10;;;;;;;-8.26;80.19;140276.84;106890;1257;24276;-67
2024/03/07 07:39:24;;;;;;;15.40;9.80;;;;;;;-8.23;80.24;140284.73;106693;1274;22540;-72
2024/03/07 07:42:10;;;;;;;15.20;9.70;;;;;;;-8.21;80.40;140287.95;106671;1271;23627;-67
2024/03/07 07:44:56;;;;;;;17.20;10.20;;;;;;;-8.17;80.66;140299.03;106890;1265;26592;-67
2024/03/07 07:47:48;;;;;;;13.70;9.30;;;;;;;-8.04;80.33;140329.38;106829;1261;22790;-71
2024/03/07 07:50:34;;;;;;;15.90;10.20;;;;;;;-8.02;80.36;140333.83;106848;1262;25470;-69
2024/03/07 07:53:21;;;;;;;14.20;10.20;;;;;;;-8.02;80.02;140333.33;106921;1260;25382;-69
2024/03/07 07:56:08;;;;;;;16.10;9.70;;;;;;;-8.08;79.93;140321.25;106917;1265;25243;-67
2024/03/07 07:58:54;;;;;;;17.10;10.80;;;;;;;-8.10;80.26;140316.78;106872;1259;22711;-69
2024/03/07 08:01:40;;;;;;;17.10;9.90;;;;;;;-8.07;80.37;140323.22;106902;1262;25402;-68
2024/03/07 08:04:25;;;;;;;17.10;9.90;;;;;;;-8.17;80.44;140299.05;106857;1257;25366;-67
2024/03/07 08:07:11;;;;;;;16.90;10.40;;;;;;;-8.35;81.15;140253.91;106909;1262;25372;-69
2024/03/07 08:09:57;;;;;;;18.30;10.40;;;;;;;-8.39;81.97;140246.03;107004;1271;25417;-72
2024/03/07 08:12:43;;;;;;;16.60;10.30;;;;;;;-8.30;81.99;140267.47;107862;1260;23048;-69
2024/03/07 08:15:31;;;;;;;18.10;10.00;;;;;;;-8.32;82.63;140261.55;106984;1272;22530;-67
2024/03/07 08:18:17;;;;;;;16.80;9.20;;;;;;;-8.23;81.85;140284.00;107031;1262;22529;-72
2024/03/07 08:21:04;;;;;;;16.60;9.80;;;;;;;-8.19;81.53;140292.64;107137;1257;22832;-66
2024/03/07 08:23:50;;;;;;;14.70;8.70;;;;;;;-8.32;81.33;140261.08;107013;1262;25390;-71
2024/03/07 08:26:36;;;;;;;13.30;8.50;;;;;;;-8.49;82.28;140219.19;107570;1259;25558;-64
2024/03/07 08:29:22;;;;;;;18.80;9.20;;;;;;;-8.50;82.02;140219.44;106831;1272;25477;-65
2024/03/07 08:32:08;;;;;;;14.80;9.40;;;;;;;-8.52;83.19;140213.73;106982;1261;25367;-67
2024/03/07 08:34:54;;;;;;;16.40;10.10;;;;;;;-8.52;82.93;140214.50;106764;1262;25352;-66
2024/03/07 08:37:43;;;;;;;15.80;10.20;;;;;;;-8.69;84.26;140172.58;107169;1259;23023;-67
2024/03/07 08:40:32;;;;;;;18.20;10.80;;;;;;;-8.56;84.77;140204.64;107315;1259;22999;-67
2024/03/07 08:43:18;;;;;;;20.80;10.10;;;;;;;-8.32;84.14;140260.56;107540;1262;22651;-66
2024/03/07 08:46:04;;;;;;;19.50;9.80;;;;;;;-8.15;82.70;140302.48;106806;1257;25380;-65
2024/03/07 08:48:52;;;;;;;17.30;10.10;;;;;;;-8.00;81.16;140338.28;106848;1270;25489;-66
2024/03/07 08:51:38;;;;;;;14.80;9.40;;;;;;;-7.88;80.40;140368.38;106972;1272;25301;-64
2024/03/07 08:54:24;;;;;;;14.40;9.30;;;;;;;-7.78;78.37;140391.09;107130;1260;25447;-70
2024/03/07 08:57:10;;;;;;;14.30;8.70;;;;;;;-7.80;77.42;140386.41;107057;1262;25343;-70
2024/03/07 08:59:56;;;;;;;16.90;8.80;;;;;;;-7.82;77.34;140382.70;106943;1261;25501;-66
2024/03/07 09:02:42;;;;;;;14.40;8.50;;;;;;;-7.78;76.85;140392.31;107831;1259;23337;-73
2024/03/07 09:05:27;;;;;;;16.10;8.20;;;;;;;-7.72;77.07;140405.66;107550;1271;23235;-68
2024/03/07 09:08:15;;;;;;;13.40;9.30;;;;;;;-7.57;76.93;140442.42;107137;1259;25464;-66
2024/03/07 09:11:01;;;;;;;15.40;8.30;;;;;;;-7.41;75.33;140481.16;107290;1272;25416;-67
2024/03/07 09:13:49;;;;;;;15.20;9.50;;;;;;;-7.41;74.18;140480.42;107232;1260;23073;-69
2024/03/07 09:16:36;;;;;;;12.80;8.30;;;;;;;-7.45;73.62;140470.81;107321;1271;25341;-69
2024/03/07 09:19:24;;;;;;;12.80;8.70;;;;;;;-7.45;73.62;140471.03;107754;1271;25608;-75
2024/03/07 09:22:10;;;;;;;14.90;9.20;;;;;;;-7.41;73.02;140481.91;106995;1273;22557;-77
2024/03/07 09:24:56;;;;;;;12.20;8.50;;;;;;;-7.65;72.85;140422.92;107088;1258;22662;-72
2024/03/07 09:27:42;;;;;;;14.50;8.40;;;;;;;-7.75;73.61;140399.22;107185;1273;25301;-73
2024/03/07 09:30:30;;;;;;;16.60;9.30;;;;;;;-7.69;73.81;140414.03;107530;1271;25337;-67
2024/03/07 09:33:19;;;;;;;14.60;8.40;;;;;;;-7.63;73.06;140427.84;106924;1276;25337;-73
2024/03/07 09:36:06;;;;;;;13.50;9.00;;;;;;;-7.57;72.71;140442.91;107156;1269;22554;-67
2024/03/07 09:38:53;;;;;;;18.20;9.30;;;;;;;-7.54;72.73;140449.08;106960;1276;275845;-71
2024/03/07 09:41:39;;;;;;;16.20;9.70;;;;;;;-7.51;73.08;140457.72;106942;1259;25364;-72
2024/03/07 09:44:28;;;;;;;16.90;9.60;;;;;;;-7.48;73.17;140464.39;106854;1260;22647;-68
2024/03/07 09:47:14;;;;;;;14.60;8.90;;;;;;;-7.45;73.22;140472.78;106944;1264;25322;-74
2024/03/07 09:50:01;;;;;;;15.50;8.80;;;;;;;-7.42;73.18;140477.95;107280;1272;26520;-69
2024/03/07 09:52:51;;;;;;;16.30;8.80;;;;;;;-7.34;73.01;140497.45;106577;1260;25341;-71
2024/03/07 09:55:37;;;;;;;13.70;8.60;;;;;;;-7.27;72.87;140515.48;106693;1276;25366;-70
2024/03/07 09:58:25;;;;;;;15.10;8.90;;;;;;;-7.20;72.19;140531.50;106679;1271;22535;-73
2024/03/07 10:01:12;;;;;;;14.70;7.90;;;;;;;-7.14;71.79;140545.34;106764;1272;25366;-65
2024/03/07 10:04:09;;;;;;;15.00;9.50;;;;;;;-7.14;70.77;140545.11;106759;1264;25337;-69
2024/03/07 10:06:56;;;;;;;15.30;9.30;;;;;;;-7.14;71.06;140545.09;106447;1262;26584;-68
2024/03/07 10:09:43;;;;;;;15.30;8.80;;;;;;;-7.09;70.62;140557.70;106767;1260;25425;-69
2024/03/07 10:12:31;;;;;;;13.30;8.60;;;;;;;-7.01;70.93;140578.20;107016;1262;25501;-75
2024/03/07 10:15:17;;;;;;;22.70;9.20;;;;;;;-6.95;70.52;140593.28;106909;1259;25365;-69
2024/03/07 10:18:07;;;;;;;15.90;9.20;;;;;;;-6.90;70.06;140605.14;106726;1260;25385;-72
2024/03/07 10:20:55;;;;;;;15.40;8.70;;;;;;;-6.81;69.47;140627.59;106730;1261;25512;-70
2024/03/07 10:23:41;;;;;;;19.70;8.70;;;;;;;-6.81;68.55;140627.34;106493;1264;25353;-68
2024/03/07 10:26:28;;;;;;;14.90;9.10;;;;;;;-6.76;68.77;140638.22;106871;1264;23199;-71
2024/03/07 10:29:13;;;;;;;15.40;9.00;;;;;;;-6.70;68.55;140652.80;107413;1258;25354;-73
2024/03/07 10:31:59;;;;;;;13.70;8.60;;;;;;;-6.64;68.47;140665.64;107133;1268;25366;-69
2024/03/07 10:34:51;;;;;;;;;;;;;;;-6.66;67.86;140662.17;107028;1259;25306;-68
2024/03/07 10:37:37;;;;;;;15.10;8.70;;;;;;;-6.72;67.75;140646.88;107095;1260;25341;-71
2024/03/07 10:40:25;;;;;;;13.80;8.60;;;;;;;-6.88;67.53;140608.59;106842;1263;25428;-67
2024/03/07 10:43:14;;;;;;;13.40;8.80;;;;;;;-7.03;67.68;140572.53;106890;1260;25366;-67
2024/03/07 10:46:06;;;;;;;17.80;8.20;;;;;;;-7.14;68.23;140546.09;106908;1259;24417;-75
2024/03/07 10:48:58;;;;;;;;;;;;;;;-7.15;68.72;140543.88;107181;1258;25325;-69
2024/03/07 10:52:03;;;;;;;14.80;9.40;;;;;;;-7.21;69.04;140529.30;107064;1259;23000;-67
2024/03/07 10:55:23;;;;;;;14.40;8.80;;;;;;;-7.21;69.65;140530.30;106841;1272;25376;-69
2024/03/07 10:58:27;;;;;;;15.20;9.00;;;;;;;-7.15;69.64;140542.16;106969;1272;25358;-69
2024/03/07 11:01:18;;;;;;;14.90;9.20;;;;;;;-7.19;69.80;140533.50;106755;1272;25337;-69
2024/03/07 11:04:05;;;;;;;16.60;8.90;;;;;;;-7.21;69.92;140530.05;107163;1260;25412;-67
2024/03/07 11:06:51;;;;;;;16.10;8.90;;;;;;;-7.27;69.87;140514.50;107043;1262;25361;-68
2024/03/07 11:09:37;;;;;;;14.80;9.30;;;;;;;-7.29;70.50;140509.56;106987;1273;26490;-73
2024/03/07 11:12:24;;;;;;;15.80;9.60;;;;;;;-7.30;70.72;140508.33;107033;1271;24305;-73
2024/03/07 11:15:14;;;;;;;14.60;9.00;;;;;;;-7.26;70.44;140518.45;106824;1279;25377;-73
2024/03/07 11:18:00;;;;;;;14.70;9.80;;;;;;;-7.27;70.55;140514.73;106943;1271;23339;-66
2024/03/07 11:20:46;;;;;;;21.10;9.10;;;;;;;-7.19;70.28;140534.73;106928;1272;25459;-72
2024/03/07 11:23:38;;;;;;;15.00;9.00;;;;;;;-7.24;70.40;140521.91;106872;1272;25486;-79
2024/03/07 11:26:23;;;;;;;14.50;9.00;;;;;;;-7.14;70.61;140545.34;106906;1261;24064;-70
2024/03/07 11:29:46;;;;;;;17.80;8.50;;;;;;;-7.02;69.83;140574.48;106855;1279;25363;-70
2024/03/07 11:32:38;;;;;;;15.00;8.80;;;;;;;-6.92;69.34;140598.70;106993;1262;25396;-67
2024/03/07 11:35:37;;;;;;;14.60;8.50;;;;;;;-6.90;68.47;140603.41;107011;1258;25358;-68
2024/03/07 11:38:34;;;;;;;15.20;9.20;;;;;;;-7.00;68.69;140581.42;106716;1259;25428;-67
2024/03/07 11:41:21;;;;;;;15.60;9.60;;;;;;;-6.99;68.62;140583.16;106795;1262;25349;-68
2024/03/07 11:44:06;;;;;;;15.60;9.20;;;;;;;-6.99;68.87;140581.91;107126;1274;26223;-71
2024/03/07 11:46:52;;;;;;;15.50;8.80;;;;;;;-6.98;68.79;140586.59;106842;1262;25597;-68
2024/03/07 11:49:39;;;;;;;16.20;8.30;;;;;;;-6.89;68.77;140606.84;106878;1272;22629;-72
2024/03/07 11:52:27;;;;;;;15.20;8.20;;;;;;;-6.71;68.62;140650.33;106952;1276;22661;-65
2024/03/07 11:55:15;;;;;;;14.30;9.10;;;;;;;-6.57;67.34;140684.92;106944;1259;25277;-69
2024/03/07 11:58:01;;;;;;;15.80;10.10;;;;;;;-6.58;66.91;140681.22;107043;1262;25448;-71
2024/03/07 12:00:49;;;;;;;13.80;9.50;;;;;;;-6.54;66.77;140691.34;106862;1276;25416;-67
2024/03/07 12:03:34;;;;;;;17.10;9.50;;;;;;;-6.52;66.23;140695.78;106777;1260;25418;-70
2024/03/07 12:06:20;;;;;;;15.90;9.40;;;;;;;-6.50;66.32;140700.97;106882;1262;25473;-66
2024/03/07 12:09:15;;;;;;;15.40;8.80;;;;;;;-6.50;65.78;140702.20;106683;1259;22561;-72
2024/03/07 12:12:03;;;;;;;15.70;9.10;;;;;;;-6.50;66.17;140699.75;106640;1260;25422;-68
2024/03/07 12:14:53;;;;;;;14.70;9.30;;;;;;;-6.40;65.94;140724.42;106747;1258;25422;-70
2024/03/07 12:17:40;;;;;;;16.40;9.50;;;;;;;-6.49;65.85;140703.44;106698;1257;26601;-68
2024/03/07 12:20:33;;;;;;;13.00;8.20;;;;;;;-6.48;65.65;140706.16;106684;1264;25421;-67
2024/03/07 12:23:19;;;;;;;12.50;8.80;;;;;;;-6.41;65.31;140722.22;106732;1280;25488;-70
2024/03/07 12:26:05;;;;;;;14.20;8.00;;;;;;;-6.39;64.94;140727.16;106850;1263;22517;-70
2024/03/07 12:28:53;;;;;;;14.20;8.70;;;;;;;-6.39;64.95;140726.67;106926;1278;25406;-69
2024/03/07 12:31:39;;;;;;;13.50;7.90;;;;;;;-6.32;64.44;140743.95;106817;1262;25504;-70
2024/03/07 12:34:27;;;;;;;13.20;8.00;;;;;;;-6.24;63.88;140763.50;106894;1260;25348;-67
2024/03/07 12:37:17;;;;;;;13.80;8.20;;;;;;;-6.17;63.28;140780.05;106821;1260;25411;-67